DW8338 Sevilla ES current weather conditions

sailwx.info

Wind from 337 at 1 knots gusting 3

Air temperature 8.3° C
Dewpoint 6.5° C

Last reported at 2018-Jan-23 03:58 UTC.
Time now 2018-Jan-23 04:17 UTC

Location: N 37°23' W 006°01'.
View on Google Maps.

See reports from other nearby stations

  
Tides and Currents Weather Stations Pressure Air Temp Water Temp Dewpoint Dewpoint Depression Visibility Wind Speed Wind Dir Waves Ship Positions
date/time (UTC)wind fromknots sea level pressurealtimeterstation pressurevisibilityair tempwater tempwave heightnotes
2018-Jan-23 03:58 337 1 gusting 3 8.3
2018-Jan-23 03:49 335 1 gusting 3 8.3
2018-Jan-23 03:40 335 0 gusting 5 8.3
2018-Jan-23 03:31 8.9
2018-Jan-23 03:22 8.9
2018-Jan-23 03:13 8.9
2018-Jan-23 03:04 9.4
2018-Jan-23 02:55 001 0 gusting 1 10.0
2018-Jan-23 02:46 001 0 gusting 2 10.0
2018-Jan-23 02:37 001 0 gusting 2 10.6
2018-Jan-23 02:28 001 0 gusting 1 10.6
2018-Jan-23 02:19 001 0 gusting 2 10.6
2018-Jan-23 02:10 357 1 gusting 2 10.6
2018-Jan-23 02:01 355 1 gusting 2 10.6
2018-Jan-23 01:52 354 0 gusting 2 10.6
2018-Jan-23 01:43 352 1 gusting 2 10.6
2018-Jan-23 01:34 351 1 gusting 2 10.6
2018-Jan-23 01:25 351 1 gusting 2 10.6
2018-Jan-23 01:16 346 1 gusting 3 10.6
2018-Jan-23 01:07 343 0 gusting 2 10.6
2018-Jan-23 00:58 349 1 gusting 3 10.6
2018-Jan-23 00:49 350 1 gusting 3 10.0
2018-Jan-23 00:40 345 1 gusting 2 10.0
2018-Jan-23 00:31 339 1 gusting 3 10.0
2018-Jan-23 00:22 333 0 gusting 3 10.0
2018-Jan-23 00:13 346 1 gusting 2 10.6
2018-Jan-23 00:04 356 1 gusting 3 10.6
2018-Jan-22 23:55 353 2 gusting 4 10.6
2018-Jan-22 23:46 006 2 gusting 4 10.6
2018-Jan-22 23:37 011 1 gusting 4 10.6
2018-Jan-22 23:28 341 1 gusting 2 11.1
2018-Jan-22 23:19 341 1 gusting 4 11.1
2018-Jan-22 23:10 003 0 gusting 3 11.7
2018-Jan-22 23:01 029 11.7
2018-Jan-22 22:52 11.1
2018-Jan-22 22:43 11.7
2018-Jan-22 22:34 11.7
2018-Jan-22 22:25 11.7
2018-Jan-22 22:16 12.2
2018-Jan-22 22:07 12.2
2018-Jan-22 21:58 028 0 gusting 3 12.8
2018-Jan-22 21:49 019 12.8
2018-Jan-22 21:40 12.8
2018-Jan-22 21:31 12.8
2018-Jan-22 21:22 12.8
2018-Jan-22 21:13 13.3
2018-Jan-22 21:04 13.3
2018-Jan-22 20:55 13.3
2018-Jan-22 20:46 13.9
2018-Jan-22 20:37 14.4
2018-Jan-22 20:28 14.4
2018-Jan-22 20:19 14.4
2018-Jan-22 20:10 14.4
2018-Jan-22 19:53 15.0
2018-Jan-22 19:44 15.6
2018-Jan-22 19:35 15.6
2018-Jan-22 19:26 15.6
2018-Jan-22 19:17 15.6
2018-Jan-22 19:08 16.1
2018-Jan-22 18:59 16.1
2018-Jan-22 18:50 16.1
2018-Jan-22 18:41 232 0 gusting 1 16.7
2018-Jan-22 18:32 232 2 gusting 3 16.7
2018-Jan-22 18:23 219 1 gusting 4 16.7
2018-Jan-22 18:14 198 1 gusting 2 17.2
2018-Jan-22 18:05 198 1 gusting 2 17.2
2018-Jan-22 17:56 198 1 gusting 2 17.2
2018-Jan-22 17:47 198 1 gusting 2 17.8
2018-Jan-22 17:38 191 0 gusting 2 18.3
2018-Jan-22 17:29 183 18.3
2018-Jan-22 17:20 18.9
2018-Jan-22 17:11 19.4
2018-Jan-22 17:02 183 0 gusting 1 19.4
2018-Jan-22 16:53 183 0 gusting 2 19.4
2018-Jan-22 16:44 183 20.0
2018-Jan-22 16:35 19.4
2018-Jan-22 16:26 183 0 gusting 2 19.4
2018-Jan-22 16:17 183 20.0
2018-Jan-22 16:08 183 0 gusting 1 19.4
2018-Jan-22 15:59 183 19.4
2018-Jan-22 15:50 183 0 gusting 0 19.4
2018-Jan-22 15:41 173 1 gusting 3 19.4
2018-Jan-22 15:32 146 0 gusting 3 19.4
2018-Jan-22 15:23 090 0 gusting 2 19.4
2018-Jan-22 15:14 023 19.4
2018-Jan-22 15:05 355 0 gusting 1 18.9
2018-Jan-22 14:56 312 0 gusting 3 18.3
2018-Jan-22 14:47 287 1 gusting 3 18.3
2018-Jan-22 14:38 304 0 gusting 3 18.3
2018-Jan-22 14:29 320 0 gusting 2 18.3
2018-Jan-22 14:20 334 1 gusting 3 17.8
2018-Jan-22 14:11 012 1 gusting 3 17.8
2018-Jan-22 14:02 343 1 gusting 3 17.8
2018-Jan-22 13:53 015 1 gusting 3 17.2
2018-Jan-22 13:44 037 1 gusting 4 16.7
2018-Jan-22 13:35 028 2 gusting 5 16.7
2018-Jan-22 13:17 352 2 gusting 5 16.1
2018-Jan-22 13:08 016 1 gusting 4 16.1
2018-Jan-22 12:59 013 2 gusting 5 16.1
2018-Jan-22 12:50 347 3 gusting 5 15.6
2018-Jan-22 12:41 359 2 gusting 6 15.6
2018-Jan-22 12:32 010 2 gusting 5 15.6
2018-Jan-22 12:23 010 3 gusting 5 15.0
2018-Jan-22 12:14 015 3 gusting 6 14.4
2018-Jan-22 12:05 008 4 gusting 6 14.4
2018-Jan-22 11:56 014 4 gusting 6 14.4
2018-Jan-22 11:47 016 4 gusting 7 13.9
2018-Jan-22 11:38 013 4 gusting 7 13.3
2018-Jan-22 11:29 007 4 gusting 8 13.3
2018-Jan-22 11:20 014 3 gusting 6 13.3
2018-Jan-22 11:11 015 2 gusting 6 13.3
2018-Jan-22 11:02 027 1 gusting 4 13.3
2018-Jan-22 10:53 032 1 gusting 6 12.8
2018-Jan-22 10:44 063 2 gusting 4 12.2
2018-Jan-22 10:35 048 2 gusting 5 12.2
2018-Jan-22 10:26 019 2 gusting 4 11.7
2018-Jan-22 10:17 011 2 gusting 4 11.1
2018-Jan-22 10:08 355 1 gusting 5 11.1
2018-Jan-22 09:59 003 1 gusting 4 10.6
2018-Jan-22 09:50 356 1 gusting 4 10.6
2018-Jan-22 09:41 344 1 gusting 4 10.6
2018-Jan-22 09:32 004 1 gusting 3 10.0
2018-Jan-22 09:23 011 0 gusting 2 10.0
2018-Jan-22 09:14 355 0 gusting 2 9.4
2018-Jan-22 09:05 009 1 gusting 3 8.9
2018-Jan-22 08:56 354 1 gusting 3 8.9
2018-Jan-22 08:47 352 1 gusting 2 8.3
2018-Jan-22 08:38 338 2 gusting 3 8.3
2018-Jan-22 08:29 356 0 gusting 3 7.8
2018-Jan-22 08:20 349 0 gusting 2 7.8
2018-Jan-22 08:11 001 1 gusting 2 7.8
2018-Jan-22 08:02 001 1 gusting 3 7.2
2018-Jan-22 07:53 005 2 gusting 3 7.2
2018-Jan-22 07:44 008 1 gusting 4 7.2
2018-Jan-22 07:35 008 1 gusting 4 7.2
2018-Jan-22 07:26 009 2 gusting 4 7.2
2018-Jan-22 07:17 352 2 gusting 5 7.2
2018-Jan-22 07:08 359 1 gusting 5 7.2
2018-Jan-22 06:59 357 2 gusting 4 7.2
2018-Jan-22 06:50 353 2 gusting 4 7.2
2018-Jan-22 06:41 336 2 gusting 5 6.7
2018-Jan-22 06:32 347 2 gusting 4 7.2
2018-Jan-22 06:23 008 2 gusting 4 7.2
2018-Jan-22 06:14 013 2 gusting 5 7.2
2018-Jan-22 06:05 359 2 gusting 5 7.2
2018-Jan-22 05:56 357 2 gusting 5 7.2
2018-Jan-22 05:47 002 2 gusting 5 7.2
2018-Jan-22 05:38 352 2 gusting 5 7.2
2018-Jan-22 05:29 347 2 gusting 4 7.2
2018-Jan-22 05:20 357 1 gusting 3 7.2
2018-Jan-22 05:11 355 2 gusting 3 7.2
2018-Jan-22 05:02 004 2 gusting 4 7.2
2018-Jan-22 04:53 001 2 gusting 3 7.2
2018-Jan-22 04:44 356 2 gusting 5 7.2
2018-Jan-22 04:35 348 2 gusting 5 7.2
2018-Jan-22 04:26 002 2 gusting 5 7.8
2018-Jan-22 04:17 014 2 gusting 4 7.8
2018-Jan-22 04:08 011 3 gusting 6 7.8
2018-Jan-22 03:59 002 2 gusting 5 7.8
2018-Jan-22 03:50 353 2 gusting 6 7.8
2018-Jan-22 03:41 341 3 gusting 6 7.8
2018-Jan-22 03:32 338 2 gusting 6 7.8
2018-Jan-22 03:23 335 2 gusting 5 7.8
2018-Jan-22 03:14 344 1 gusting 3 8.3
2018-Jan-22 03:05 348 1 gusting 3 8.3
2018-Jan-22 02:56 352 2 gusting 4 8.3
2018-Jan-22 02:47 343 0 gusting 4 8.3
2018-Jan-22 02:38 010 1 gusting 2 8.3
2018-Jan-22 02:29 023 0 gusting 2 8.9
2018-Jan-22 02:20 030 1 gusting 2 8.9
2018-Jan-22 02:11 033 1 gusting 3 8.9
2018-Jan-22 02:02 029 8.9
2018-Jan-22 01:53 9.4
2018-Jan-22 01:44 029 0 gusting 2 9.4
2018-Jan-22 01:35 021 2 gusting 3 9.4
2018-Jan-22 01:17 033 1 gusting 3 9.4
2018-Jan-22 01:08 027 1 gusting 3 10.0
2018-Jan-22 00:59 021 0 gusting 3 10.0
2018-Jan-22 00:50 016 1 gusting 3 10.0
2018-Jan-22 00:41 354 10.0
2018-Jan-22 00:32 347 0 gusting 2 10.0
2018-Jan-22 00:23 348 0 gusting 2 10.0
2018-Jan-22 00:14 347 0 gusting 0 10.0
2018-Jan-22 00:05 348 0 gusting 2 10.0
2018-Jan-21 23:56 348 0 gusting 2 10.0
2018-Jan-21 23:47 348 0 gusting 2 10.0
2018-Jan-21 23:38 10.0
2018-Jan-21 23:29 10.0
2018-Jan-21 23:20 10.0
2018-Jan-21 23:11 10.0
2018-Jan-21 23:02 10.6
2018-Jan-21 22:53 348 0 gusting 2 10.6
2018-Jan-21 22:44 347 10.6
2018-Jan-21 22:35 10.6
2018-Jan-21 22:26 348 0 gusting 2 10.6
2018-Jan-21 22:17 348 1 gusting 2 10.6
2018-Jan-21 22:08 348 1 gusting 2 10.6
2018-Jan-21 21:59 341 1 gusting 3 10.6
2018-Jan-21 21:50 327 1 gusting 3 11.1
2018-Jan-21 21:41 319 0 gusting 3 11.7
2018-Jan-21 21:32 289 11.7
2018-Jan-21 21:23 11.7
2018-Jan-21 21:14 11.7
2018-Jan-21 21:05 11.7
2018-Jan-21 20:56 194 1 gusting 1 12.2
2018-Jan-21 20:47 194 1 gusting 2 12.2
2018-Jan-21 20:38 194 1 gusting 2 12.2
2018-Jan-21 20:29 196 2 gusting 4 12.2
2018-Jan-21 20:20 187 1 gusting 4 12.2
2018-Jan-21 20:11 186 1 gusting 2 12.8
2018-Jan-21 20:02 186 1 gusting 3 12.8
2018-Jan-21 19:53 186 1 gusting 3 12.8
2018-Jan-21 19:44 179 1 gusting 3 12.8
2018-Jan-21 19:35 169 1 gusting 3 12.8
2018-Jan-21 19:26 186 2 gusting 4 12.8
2018-Jan-21 19:17 196 2 gusting 4 13.3
2018-Jan-21 19:08 189 2 gusting 3 13.3
2018-Jan-21 18:59 174 2 gusting 3 13.3
2018-Jan-21 18:50 184 2 gusting 4 13.3
2018-Jan-21 18:41 189 2 gusting 4 13.3
2018-Jan-21 18:32 195 3 gusting 5 13.3
2018-Jan-21 18:23 192 3 gusting 6 13.9
2018-Jan-21 18:14 186 3 gusting 6 13.9
2018-Jan-21 18:05 184 3 gusting 6 14.4
2018-Jan-21 17:56 181 3 gusting 6 14.4
2018-Jan-21 17:47 181 4 gusting 6 14.4
2018-Jan-21 17:38 177 5 gusting 7 15.0
2018-Jan-21 17:29 176 5 gusting 8 15.0
2018-Jan-21 17:20 176 5 gusting 9 15.6
2018-Jan-21 17:11 181 3 gusting 9 15.6
2018-Jan-21 17:02 181 3 gusting 6 16.1
2018-Jan-21 16:53 187 3 gusting 6 16.1
2018-Jan-21 16:44 185 4 gusting 6 16.1
2018-Jan-21 16:35 200 3 gusting 6 16.7
2018-Jan-21 16:26 197 4 gusting 6 16.7
2018-Jan-21 16:17 191 5 gusting 7 16.7
2018-Jan-21 16:08 185 5 gusting 8 16.7
2018-Jan-21 15:59 184 5 gusting 8 16.7
2018-Jan-21 15:50 183 4 gusting 7 16.7
2018-Jan-21 15:41 197 4 gusting 6 17.2
2018-Jan-21 15:32 191 4 gusting 7 17.2
2018-Jan-21 15:23 187 4 gusting 7 17.2
2018-Jan-21 15:14 195 2 gusting 8 17.8
2018-Jan-21 15:05 229 1 gusting 4 17.8
2018-Jan-21 14:56 185 0 gusting 4 17.8
2018-Jan-21 14:47 162 0 gusting 2 17.8
2018-Jan-21 14:38 113 0 gusting 2 17.8
2018-Jan-21 14:29 140 1 gusting 3 16.7
2018-Jan-21 14:20 177 1 gusting 4 17.2
2018-Jan-21 14:11 279 0 gusting 4 17.2
2018-Jan-21 14:02 288 0 gusting 3 16.7
2018-Jan-21 13:53 014 0 gusting 2 16.7
2018-Jan-21 13:44 265 0 gusting 2 16.7
2018-Jan-21 13:35 253 1 gusting 3 16.1
2018-Jan-21 13:26 249 1 gusting 3 15.6
2018-Jan-21 13:17 304 0 gusting 3 15.6
2018-Jan-21 13:08 024 0 gusting 2 15.6
2018-Jan-21 12:59 078 0 gusting 2 15.6
2018-Jan-21 12:50 166 15.6
2018-Jan-21 12:41 168 15.6
2018-Jan-21 12:32 169 0 gusting 1 15.0
2018-Jan-21 12:23 168 0 gusting 3 14.4
2018-Jan-21 12:14 166 0 gusting 2 13.9
2018-Jan-21 12:05 231 1 gusting 3 13.3
2018-Jan-21 11:56 228 0 gusting 2 13.3
2018-Jan-21 11:47 239 0 gusting 3 12.8
2018-Jan-21 11:29 268 0 gusting 2 11.7
2018-Jan-21 11:20 302 0 gusting 1 10.6
2018-Jan-21 11:11 302 0 gusting 2 10.0
2018-Jan-21 11:02 281 0 gusting 2 9.4
2018-Jan-21 10:53 287 1 gusting 3 8.3
2018-Jan-21 10:44 322 1 gusting 3 8.3
2018-Jan-21 10:35 321 2 gusting 3 7.8
2018-Jan-21 10:26 319 1 gusting 4 7.8
2018-Jan-21 10:17 325 1 gusting 3 7.8
2018-Jan-21 10:08 325 1 gusting 3 7.2
2018-Jan-21 09:50 330 0 gusting 3 7.2
2018-Jan-21 09:41 315 0 gusting 1 6.7
2018-Jan-21 09:32 315 0 gusting 2 6.7
2018-Jan-21 09:23 317 0 gusting 2 6.1
2018-Jan-21 09:14 028 1 gusting 2 6.7
2018-Jan-21 09:05 021 1 gusting 3 6.1
2018-Jan-21 08:56 009 2 gusting 4 6.1
2018-Jan-21 08:47 025 1 gusting 5 6.1
2018-Jan-21 08:20 030 2 gusting 4 5.6
2018-Jan-21 08:11 017 2 gusting 4 5.6
2018-Jan-21 08:02 341 2 gusting 4 5.6
2018-Jan-21 07:53 340 2 gusting 4 5.6
2018-Jan-21 07:44 345 2 gusting 6 5.6
2018-Jan-21 07:35 004 1 gusting 4 5.6
2018-Jan-21 07:26 359 2 gusting 4 5.6
2018-Jan-21 07:17 359 0 gusting 3 5.6
2018-Jan-21 07:08 009 5.6
2018-Jan-21 06:50 5.6
2018-Jan-21 06:41 5.6
2018-Jan-21 06:32 004 1 gusting 2 5.6
2018-Jan-21 06:14 016 5.6
2018-Jan-21 06:05 011 0 gusting 2 5.6
2018-Jan-21 05:56 014 0 gusting 2 5.6
2018-Jan-21 05:47 034 0 gusting 3 5.6
2018-Jan-21 05:38 062 5.6
2018-Jan-21 05:29 5.0
2018-Jan-21 05:20 5.0
2018-Jan-21 05:11 5.0
2018-Jan-21 05:02 5.0
2018-Jan-21 04:53 5.0
2018-Jan-21 04:44 5.0
2018-Jan-21 04:26 186 5.0
2018-Jan-21 04:17 187 0 gusting 1 5.0
2018-Jan-21 04:08 187 1 gusting 2 5.0